Wetterdaten: Woche 17.07.17 - 23.07.17 (KW29)
Datum Zeit Temp. Aussen Temp. o. S. +5cm Feuchte Auss BlattFeu 1 Luftdruck Regen Sonnenschein Regendauer Solar Windben Empfang
17.07.2017 00:00 19,7 C 18,9 C 17,8 C 88 % 0 lf 1020,9 hPa 0,0 l/m 0,00 h 0,00 h 0 W/m 0,0 km/h (0 Bft) 96,06 %
17.07.2017 01:00 19,4 C 18,9 C 17,8 C 89 % 0 lf 1020,8 hPa 0,0 l/m 0,00 h 0,00 h 0 W/m 0,0 km/h (0 Bft) 97,72 %
17.07.2017 02:00 19,2 C 18,8 C 17,3 C 90 % 0 lf 1020,5 hPa 0,0 l/m 0,00 h 0,00 h 0 W/m 0,0 km/h (0 Bft) 95,87 %
17.07.2017 03:00 19,0 C 18,5 C 17,3 C 91 % 0 lf 1020,4 hPa 0,0 l/m 0,00 h 0,00 h 0 W/m 0,0 km/h (0 Bft) 93,81 %
17.07.2017 04:00 18,8 C 18,3 C 17,2 C 91 % 0 lf 1020,2 hPa 0,0 l/m 0,00 h 0,00 h 0 W/m 0,0 km/h (0 Bft) 99,05 %
17.07.2017 05:00 18,8 C 18,2 C 17,1 C 92 % 6 lf 1020,3 hPa 0,4 l/m 0,00 h 0,40 h 6 W/m 0,0 km/h (0 Bft) 95,50 %
17.07.2017 06:00 18,6 C 17,6 C 16,5 C 95 % 15 lf 1020,5 hPa 3,2 l/m 0,00 h 1,00 h 10 W/m 5,0 km/h (1 Bft) 95,93 %
17.07.2017 07:00 17,9 C 17,2 C 16,2 C 96 % 15 lf 1020,9 hPa 2,0 l/m 0,00 h 1,00 h 32 W/m 10,4 km/h (2 Bft) 96,30 %
17.07.2017 08:00 17,3 C 17,0 C 16,0 C 97 % 15 lf 1021,4 hPa 0,6 l/m 0,00 h 0,83 h 69 W/m 12,7 km/h (3 Bft) 97,72 %
17.07.2017 09:00 17,3 C 17,8 C 16,6 C 98 % 15 lf 1021,8 hPa 0,2 l/m 0,00 h 0,50 h 140 W/m 9,9 km/h (2 Bft) 95,93 %
17.07.2017 10:00 17,3 C 18,4 C 17,0 C 98 % 15 lf 1022,0 hPa 0,0 l/m 0,13 h 0,27 h 184 W/m 12,0 km/h (2 Bft) 96,15 %
17.07.2017 11:00 18,1 C 24,5 C 20,3 C 95 % 0 lf 1022,0 hPa 0,0 l/m 0,78 h 0,00 h 451 W/m 12,6 km/h (3 Bft) 97,21 %
17.07.2017 12:00 19,9 C 28,6 C 23,1 C 77 % 0 lf 1021,9 hPa 0,0 l/m 0,98 h 0,00 h 562 W/m 11,8 km/h (2 Bft) 97,20 %
17.07.2017 13:00 22,3 C 32,5 C 23,6 C 69 % 0 lf 1021,9 hPa 0,0 l/m 1,00 h 0,00 h 887 W/m 12,1 km/h (2 Bft) 94,87 %
17.07.2017 14:00 23,7 C 31,2 C 29,6 C 62 % 0 lf 1021,6 hPa 0,0 l/m 1,00 h 0,00 h 868 W/m 10,6 km/h (2 Bft) 98,38 %
17.07.2017 15:00 25,0 C 31,0 C 33,3 C 56 % 0 lf 1021,3 hPa 0,0 l/m 1,00 h 0,00 h 812 W/m 12,0 km/h (2 Bft) 96,09 %
17.07.2017 16:00 25,3 C 27,6 C 32,9 C 55 % 0 lf 1021,0 hPa 0,0 l/m 1,00 h 0,00 h 716 W/m 13,5 km/h (3 Bft) 96,31 %
17.07.2017 17:00 24,9 C 25,6 C 23,3 C 54 % 0 lf 1020,8 hPa 0,0 l/m 1,00 h 0,00 h 575 W/m 16,3 km/h (3 Bft) 97,23 %
17.07.2017 18:00 23,9 C 24,3 C 22,0 C 53 % 0 lf 1020,6 hPa 0,0 l/m 1,00 h 0,00 h 420 W/m 15,4 km/h (3 Bft) 95,69 %
17.07.2017 19:00 23,2 C 23,1 C 21,4 C 53 % 0 lf 1020,5 hPa 0,0 l/m 1,00 h 0,00 h 256 W/m 14,5 km/h (3 Bft) 96,59 %
17.07.2017 20:00 22,5 C 22,0 C 20,4 C 54 % 0 lf 1020,6 hPa 0,0 l/m 1,00 h 0,00 h 108 W/m 13,8 km/h (3 Bft) 96,92 %
17.07.2017 21:00 21,2 C 19,5 C 17,9 C 60 % 0 lf 1020,7 hPa 0,0 l/m 0,37 h 0,00 h 32 W/m 8,1 km/h (2 Bft) 95,79 %
17.07.2017 22:00 19,5 C 17,3 C 15,7 C 67 % 0 lf 1020,9 hPa 0,0 l/m 0,00 h 0,00 h 3 W/m 6,1 km/h (2 Bft) 97,14 %
17.07.2017 23:00 17,9 C 15,2 C 13,6 C 72 % 0 lf 1020,9 hPa 0,0 l/m 0,00 h 0,00 h 4 W/m 2,9 km/h (1 Bft) 95,96 %
18.07.2017 00:00 16,4 C 14,1 C 12,8 C 77 % 0 lf 1020,9 hPa 0,0 l/m 0,00 h 0,00 h 3 W/m 0,0 km/h (0 Bft) 94,55 %
18.07.2017 01:00 15,3 C 13,1 C 12,1 C 81 % 0 lf 1020,9 hPa 0,0 l/m 0,00 h 0,00 h 4 W/m 0,0 km/h (0 Bft) 97,40 %
18.07.2017 02:00 14,4 C 12,4 C 11,7 C 84 % 0 lf 1020,7 hPa 0,0 l/m 0,00 h 0,00 h 4 W/m 0,0 km/h (0 Bft) 98,35 %
18.07.2017 03:00 13,6 C 11,8 C 11,1 C 87 % 0 lf 1020,5 hPa 0,0 l/m 0,00 h 0,00 h 4 W/m 0,0 km/h (0 Bft) 93,49 %
18.07.2017 04:00 13,0 C 11,4 C 10,8 C 90 % 1 lf 1020,1 hPa 0,0 l/m 0,00 h 0,00 h 5 W/m 0,0 km/h (0 Bft) 97,21 %
18.07.2017 05:00 12,5 C 11,1 C 10,6 C 91 % 2 lf 1019,8 hPa 0,0 l/m 0,00 h 0,00 h 7 W/m 0,0 km/h (0 Bft) 97,06 %
18.07.2017 06:00 12,2 C 12,2 C 11,2 C 92 % 1 lf 1020,0 hPa 0,0 l/m 0,83 h 0,00 h 89 W/m 0,0 km/h (0 Bft) 96,11 %
18.07.2017 07:00 13,7 C 16,7 C 14,9 C 95 % 0 lf 1019,9 hPa 0,0 l/m 1,00 h 0,00 h 249 W/m 5,5 km/h (1 Bft) 97,10 %
18.07.2017 08:00 16,4 C 21,3 C 17,5 C 88 % 0 lf 1019,8 hPa 0,0 l/m 1,00 h 0,00 h 331 W/m 8,5 km/h (2 Bft) 95,87 %
18.07.2017 09:00 20,1 C 30,0 C 23,0 C 74 % 0 lf 1019,5 hPa 0,0 l/m 1,00 h 0,00 h 546 W/m 10,0 km/h (2 Bft) 94,53 %
18.07.2017 10:00 23,0 C 30,8 C 27,1 C 62 % 0 lf 1019,1 hPa 0,0 l/m 0,87 h 0,00 h 603 W/m 12,7 km/h (3 Bft) 99,01 %
18.07.2017 11:00 25,1 C 33,6 C 28,9 C 56 % 0 lf 1018,6 hPa 0,0 l/m 1,00 h 0,00 h 795 W/m 18,5 km/h (3 Bft) 94,55 %
18.07.2017 12:00 26,1 C 33,4 C 30,0 C 54 % 0 lf 1018,1 hPa 0,0 l/m 1,00 h 0,00 h 857 W/m 18,9 km/h (3 Bft) 97,33 %
18.07.2017 13:00 27,4 C 33,9 C 28,1 C 53 % 0 lf 1017,4 hPa 0,0 l/m 1,00 h 0,00 h 957 W/m 19,3 km/h (3 Bft) 97,29 %
18.07.2017 14:00 28,3 C 33,9 C 33,5 C 51 % 0 lf 1016,8 hPa 0,0 l/m 1,00 h 0,00 h 913 W/m 20,0 km/h (4 Bft) 96,09 %
18.07.2017 15:00 28,9 C 33,7 C 36,6 C 49 % 0 lf 1016,0 hPa 0,0 l/m 1,00 h 0,00 h 803 W/m 17,5 km/h (3 Bft) 95,36 %
18.07.2017 16:00 29,1 C 30,7 C 34,8 C 48 % 0 lf 1015,3 hPa 0,0 l/m 1,00 h 0,00 h 692 W/m 17,4 km/h (3 Bft) 97,95 %
18.07.2017 17:00 29,3 C 30,0 C 27,6 C 48 % 0 lf 1014,5 hPa 0,0 l/m 1,00 h 0,00 h 554 W/m 20,1 km/h (4 Bft) 96,15 %
18.07.2017 18:00 28,9 C 29,1 C 26,6 C 49 % 0 lf 1014,0 hPa 0,0 l/m 1,00 h 0,00 h 400 W/m 21,2 km/h (4 Bft) 95,24 %
18.07.2017 19:00 28,1 C 27,8 C 25,5 C 50 % 0 lf 1013,9 hPa 0,0 l/m 1,00 h 0,00 h 238 W/m 20,4 km/h (4 Bft) 96,10 %
18.07.2017 20:00 27,2 C 26,6 C 24,4 C 53 % 0 lf 1013,7 hPa 0,0 l/m 0,73 h 0,00 h 95 W/m 20,5 km/h (4 Bft) 98,61 %
18.07.2017 21:00 25,8 C 24,6 C 22,6 C 56 % 0 lf 1013,4 hPa 0,0 l/m 0,07 h 0,00 h 14 W/m 16,2 km/h (3 Bft) 94,95 %
18.07.2017 22:00 24,3 C 23,2 C 21,2 C 59 % 0 lf 1013,1 hPa 0,0 l/m 0,00 h 0,00 h 1 W/m 15,2 km/h (3 Bft) 96,23 %
18.07.2017 23:00 23,1 C 22,0 C 20,2 C 62 % 0 lf 1012,8 hPa 0,0 l/m 0,00 h 0,00 h 4 W/m 11,8 km/h (2 Bft) 97,94 %
19.07.2017 00:00 22,2 C 21,4 C 19,5 C 65 % 0 lf 1012,5 hPa 0,0 l/m 0,00 h 0,00 h 2 W/m 11,1 km/h (2 Bft) 93,05 %
19.07.2017 01:00 21,4 C 20,6 C 18,3 C 69 % 0 lf 1012,3 hPa 0,0 l/m 0,00 h 0,00 h 4 W/m 9,2 km/h (2 Bft) 94,88 %
19.07.2017 02:00 20,6 C 19,7 C 17,7 C 72 % 0 lf 1011,7 hPa 0,0 l/m 0,00 h 0,00 h 4 W/m 8,1 km/h (2 Bft) 98,80 %
19.07.2017 03:00 19,9 C 18,8 C 16,8 C 76 % 0 lf 1011,2 hPa 0,0 l/m 0,00 h 0,00 h 0 W/m 4,3 km/h (1 Bft) 95,16 %
19.07.2017 04:00 19,2 C 18,7 C 16,8 C 80 % 0 lf 1010,7 hPa 0,0 l/m 0,00 h 0,00 h 4 W/m 6,6 km/h (2 Bft) 95,67 %
19.07.2017 05:00 19,1 C 18,9 C 16,9 C 83 % 0 lf 1010,4 hPa 0,0 l/m 0,00 h 0,00 h 10 W/m 6,9 km/h (2 Bft) 98,21 %
19.07.2017 06:00 19,6 C 20,2 C 18,4 C 85 % 0 lf 1010,2 hPa 0,0 l/m 0,40 h 0,00 h 47 W/m 15,1 km/h (3 Bft) 96,16 %
19.07.2017 07:00 21,0 C 21,8 C 19,8 C 81 % 0 lf 1009,6 hPa 0,0 l/m 0,97 h 0,00 h 169 W/m 22,6 km/h (4 Bft) 96,03 %
19.07.2017 08:00 22,9 C 25,3 C 21,8 C 76 % 0 lf 1009,1 hPa 0,0 l/m 1,00 h 0,00 h 340 W/m 24,7 km/h (4 Bft) 96,87 %
19.07.2017 09:00 25,7 C 31,1 C 26,6 C 68 % 0 lf 1008,8 hPa 0,0 l/m 1,00 h 0,00 h 492 W/m 28,6 km/h (4 Bft) 96,73 %
19.07.2017 10:00 28,3 C 34,1 C 33,0 C 62 % 0 lf 1008,3 hPa 0,0 l/m 1,00 h 0,00 h 635 W/m 24,3 km/h (4 Bft) 96,64 %
19.07.2017 11:00 30,3 C 35,9 C 34,7 C 58 % 0 lf 1008,0 hPa 0,0 l/m 1,00 h 0,00 h 726 W/m 22,0 km/h (4 Bft) 95,03 %
19.07.2017 12:00 32,0 C 36,9 C 36,3 C 54 % 0 lf 1008,0 hPa 0,0 l/m 0,83 h 0,00 h 643 W/m 21,5 km/h (4 Bft) 98,53 %
19.07.2017 13:00 33,1 C 36,9 C 35,4 C 52 % 0 lf 1007,4 hPa 0,0 l/m 0,97 h 0,00 h 659 W/m 17,1 km/h (3 Bft) 96,29 %
19.07.2017 14:00 33,9 C 37,5 C 36,6 C 52 % 0 lf 1007,5 hPa 0,0 l/m 0,83 h 0,00 h 585 W/m 19,3 km/h (3 Bft) 96,74 %
19.07.2017 15:00 27,9 C 24,6 C 24,0 C 64 % 8 lf 1008,5 hPa 7,8 l/m 0,00 h 0,43 h 51 W/m 29,7 km/h (5 Bft) 96,11 %
19.07.2017 16:00 20,9 C 19,1 C 18,9 C 89 % 15 lf 1008,8 hPa 0,4 l/m 0,17 h 0,77 h 114 W/m 11,7 km/h (2 Bft) 96,02 %
19.07.2017 17:00 20,7 C 19,8 C 19,4 C 93 % 15 lf 1008,5 hPa 0,4 l/m 0,00 h 0,60 h 90 W/m 12,7 km/h (3 Bft) 96,91 %
19.07.2017 18:00 21,3 C 22,2 C 21,1 C 94 % 4 lf 1008,2 hPa 0,0 l/m 0,33 h 0,00 h 254 W/m 15,6 km/h (3 Bft) 97,05 %
19.07.2017 19:00 22,5 C 23,4 C 21,5 C 87 % 0 lf 1007,5 hPa 0,0 l/m 1,00 h 0,00 h 217 W/m 13,4 km/h (3 Bft) 94,07 %
19.07.2017 20:00 23,1 C 23,0 C 21,4 C 82 % 0 lf 1007,2 hPa 0,0 l/m 0,87 h 0,00 h 90 W/m 14,0 km/h (3 Bft) 98,80 %
19.07.2017 21:00 22,3 C 21,7 C 19,9 C 82 % 0 lf 1007,7 hPa 0,0 l/m 0,00 h 0,00 h 13 W/m 14,1 km/h (3 Bft) 96,59 %
19.07.2017 22:00 21,5 C 20,6 C 19,0 C 85 % 0 lf 1007,5 hPa 0,0 l/m 0,00 h 0,00 h 0 W/m 10,7 km/h (2 Bft) 93,89 %
19.07.2017 23:00 20,8 C 20,5 C 18,9 C 88 % 0 lf 1007,2 hPa 0,0 l/m 0,00 h 0,00 h 0 W/m 11,6 km/h (2 Bft) 98,03 %
20.07.2017 00:00 20,6 C 20,2 C 18,9 C 90 % 0 lf 1007,4 hPa 0,0 l/m 0,00 h 0,07 h 0 W/m 12,0 km/h (2 Bft) 93,48 %
20.07.2017 01:00 20,6 C 20,1 C 18,9 C 91 % 0 lf 1007,6 hPa 0,0 l/m 0,00 h 0,03 h 0 W/m 9,5 km/h (2 Bft) 92,86 %
20.07.2017 02:00 20,4 C 19,4 C 18,2 C 92 % 9 lf 1007,4 hPa 0,2 l/m 0,00 h 0,57 h 0 W/m 6,4 km/h (2 Bft) 98,70 %
20.07.2017 03:00 20,0 C 18,9 C 17,8 C 93 % 2 lf 1006,7 hPa 0,0 l/m 0,00 h 0,10 h 0 W/m 2,9 km/h (1 Bft) 96,87 %
20.07.2017 04:00 19,9 C 19,4 C 18,1 C 94 % 3 lf 1006,4 hPa 0,0 l/m 0,00 h 0,07 h 0 W/m 6,3 km/h (2 Bft) 96,29 %
20.07.2017 05:00 19,6 C 18,7 C 17,6 C 95 % 15 lf 1006,8 hPa 13,4 l/m 0,00 h 1,00 h 0 W/m 9,7 km/h (2 Bft) 95,80 %
20.07.2017 06:00 19,0 C 18,3 C 17,2 C 96 % 15 lf 1007,4 hPa 0,8 l/m 0,00 h 0,67 h 6 W/m 12,9 km/h (3 Bft) 97,02 %
20.07.2017 07:00 18,5 C 17,9 C 17,2 C 97 % 15 lf 1007,5 hPa 0,4 l/m 0,00 h 0,67 h 25 W/m 9,7 km/h (2 Bft) 95,95 %
20.07.2017 08:00 19,0 C 19,2 C 18,5 C 98 % 15 lf 1007,1 hPa 0,0 l/m 0,00 h 0,00 h 131 W/m 8,8 km/h (2 Bft) 96,40 %
20.07.2017 09:00 20,0 C 21,1 C 20,4 C 99 % 10 lf 1007,4 hPa 0,0 l/m 0,27 h 0,00 h 212 W/m 11,7 km/h (2 Bft) 96,31 %
20.07.2017 10:00 21,5 C 24,9 C 23,4 C 98 % 0 lf 1007,6 hPa 0,0 l/m 0,47 h 0,00 h 353 W/m 14,5 km/h (3 Bft) 97,72 %
20.07.2017 11:00 22,8 C 25,5 C 24,6 C 87 % 0 lf 1007,8 hPa 0,0 l/m 0,27 h 0,00 h 345 W/m 18,6 km/h (3 Bft) 95,30 %
20.07.2017 12:00 23,7 C 26,3 C 24,9 C 82 % 0 lf 1007,5 hPa 0,0 l/m 0,10 h 0,00 h 294 W/m 16,3 km/h (3 Bft) 98,06 %
20.07.2017 13:00 24,6 C 29,1 C 25,9 C 74 % 0 lf 1007,6 hPa 0,0 l/m 0,53 h 0,00 h 626 W/m 22,4 km/h (4 Bft) 97,29 %
20.07.2017 14:00 25,5 C 28,7 C 28,3 C 64 % 0 lf 1007,5 hPa 0,0 l/m 0,40 h 0,00 h 525 W/m 24,5 km/h (4 Bft) 95,37 %
20.07.2017 15:00 25,9 C 28,9 C 29,9 C 59 % 0 lf 1007,6 hPa 0,0 l/m 0,77 h 0,00 h 609 W/m 30,5 km/h (5 Bft) 96,65 %
20.07.2017 16:00 26,6 C 28,1 C 31,6 C 58 % 0 lf 1007,6 hPa 0,0 l/m 0,70 h 0,00 h 570 W/m 24,3 km/h (4 Bft) 98,08 %
20.07.2017 17:00 25,7 C 26,2 C 25,4 C 61 % 0 lf 1007,7 hPa 0,0 l/m 0,17 h 0,00 h 204 W/m 19,5 km/h (3 Bft) 95,94 %
20.07.2017 18:00 25,2 C 25,8 C 24,9 C 62 % 0 lf 1008,1 hPa 0,0 l/m 0,57 h 0,00 h 236 W/m 27,2 km/h (4 Bft) 96,59 %
20.07.2017 19:00 23,9 C 23,7 C 22,7 C 67 % 0 lf 1008,9 hPa 0,0 l/m 0,30 h 0,00 h 119 W/m 32,0 km/h (5 Bft) 96,15 %
20.07.2017 20:00 21,1 C 20,4 C 19,6 C 77 % 0 lf 1010,2 hPa 0,0 l/m 0,00 h 0,00 h 40 W/m 29,0 km/h (5 Bft) 96,43 %
20.07.2017 21:00 19,5 C 19,0 C 18,0 C 84 % 0 lf 1010,9 hPa 0,0 l/m 0,00 h 0,00 h 12 W/m 16,9 km/h (3 Bft) 96,58 %
20.07.2017 22:00 18,8 C 18,0 C 17,0 C 85 % 0 lf 1011,9 hPa 0,0 l/m 0,00 h 0,00 h 5 W/m 9,9 km/h (2 Bft) 95,88 %
20.07.2017 23:00 17,8 C 16,8 C 15,6 C 83 % 0 lf 1012,6 hPa 0,0 l/m 0,00 h 0,00 h 3 W/m 9,4 km/h (2 Bft) 96,57 %
21.07.2017 00:00 16,7 C 15,3 C 14,1 C 81 % 0 lf 1013,1 hPa 0,0 l/m 0,00 h 0,00 h 4 W/m 8,1 km/h (2 Bft) 93,77 %
21.07.2017 01:00 15,5 C 14,4 C 13,4 C 80 % 0 lf 1013,3 hPa 0,0 l/m 0,00 h 0,00 h 4 W/m 9,4 km/h (2 Bft) 94,38 %
21.07.2017 02:00 14,7 C 13,7 C 12,6 C 78 % 0 lf 1013,4 hPa 0,0 l/m 0,00 h 0,00 h 3 W/m 8,6 km/h (2 Bft) 96,72 %
21.07.2017 03:00 13,9 C 13,1 C 12,0 C 79 % 0 lf 1013,4 hPa 0,0 l/m 0,00 h 0,00 h 3 W/m 9,9 km/h (2 Bft) 97,29 %
21.07.2017 04:00 13,3 C 12,1 C 11,1 C 80 % 0 lf 1013,5 hPa 0,0 l/m 0,00 h 0,00 h 5 W/m 6,7 km/h (2 Bft) 96,72 %
21.07.2017 05:00 12,6 C 12,0 C 10,6 C 83 % 0 lf 1013,7 hPa 0,0 l/m 0,00 h 0,00 h 8 W/m 7,5 km/h (2 Bft) 94,84 %
21.07.2017 06:00 12,3 C 12,0 C 10,7 C 85 % 0 lf 1013,9 hPa 0,0 l/m 0,73 h 0,00 h 62 W/m 5,9 km/h (2 Bft) 97,67 %
21.07.2017 07:00 12,7 C 13,8 C 12,1 C 86 % 0 lf 1014,1 hPa 0,0 l/m 1,00 h 0,00 h 212 W/m 7,1 km/h (2 Bft) 94,87 %
21.07.2017 08:00 14,7 C 18,9 C 14,2 C 81 % 0 lf 1014,2 hPa 0,0 l/m 1,00 h 0,00 h 369 W/m 8,3 km/h (2 Bft) 98,51 %
21.07.2017 09:00 18,9 C 28,9 C 20,4 C 65 % 0 lf 1014,2 hPa 0,0 l/m 1,00 h 0,00 h 542 W/m 6,9 km/h (2 Bft) 94,66 %
21.07.2017 10:00 21,4 C 29,8 C 26,9 C 58 % 0 lf 1014,1 hPa 0,0 l/m 1,00 h 0,00 h 690 W/m 11,5 km/h (2 Bft) 96,79 %
21.07.2017 11:00 22,4 C 29,6 C 27,1 C 54 % 0 lf 1014,0 hPa 0,0 l/m 0,97 h 0,00 h 763 W/m 11,3 km/h (2 Bft) 97,72 %
21.07.2017 12:00 23,5 C 30,7 C 27,8 C 50 % 0 lf 1013,5 hPa 0,0 l/m 1,00 h 0,00 h 853 W/m 11,6 km/h (2 Bft) 95,28 %
21.07.2017 13:00 24,8 C 31,2 C 25,4 C 49 % 0 lf 1013,1 hPa 0,0 l/m 0,93 h 0,00 h 874 W/m 10,6 km/h (2 Bft) 97,51 %
21.07.2017 14:00 24,8 C 29,3 C 29,4 C 49 % 0 lf 1012,6 hPa 0,0 l/m 1,00 h 0,00 h 887 W/m 11,3 km/h (2 Bft) 96,08 %
21.07.2017 15:00 25,1 C 29,2 C 33,5 C 50 % 0 lf 1012,0 hPa 0,0 l/m 1,00 h 0,00 h 818 W/m 14,1 km/h (3 Bft) 96,63 %
21.07.2017 16:00 26,0 C 27,5 C 33,0 C 48 % 0 lf 1011,3 hPa 0,0 l/m 1,00 h 0,00 h 728 W/m 14,6 km/h (3 Bft) 97,22 %
21.07.2017 17:00 26,5 C 26,5 C 25,2 C 48 % 0 lf 1010,6 hPa 0,0 l/m 1,00 h 0,00 h 620 W/m 13,6 km/h (3 Bft) 95,66 %
21.07.2017 18:00 25,9 C 25,9 C 23,6 C 49 % 0 lf 1009,8 hPa 0,0 l/m 1,00 h 0,00 h 462 W/m 13,4 km/h (3 Bft) 97,79 %
21.07.2017 19:00 25,3 C 25,3 C 23,2 C 51 % 0 lf 1009,3 hPa 0,0 l/m 0,93 h 0,00 h 291 W/m 12,4 km/h (3 Bft) 96,87 %
21.07.2017 20:00 24,4 C 23,3 C 21,4 C 55 % 0 lf 1009,3 hPa 0,0 l/m 0,47 h 0,00 h 91 W/m 8,4 km/h (2 Bft) 94,44 %
21.07.2017 21:00 23,2 C 21,5 C 18,9 C 61 % 0 lf 1009,2 hPa 0,0 l/m 0,00 h 0,00 h 12 W/m 6,0 km/h (2 Bft) 98,65 %
21.07.2017 22:00 21,8 C 19,6 C 17,3 C 67 % 0 lf 1009,1 hPa 0,0 l/m 0,00 h 0,00 h 3 W/m 2,9 km/h (1 Bft) 94,66 %
21.07.2017 23:00 20,6 C 19,4 C 17,4 C 73 % 0 lf 1009,1 hPa 0,0 l/m 0,00 h 0,00 h 4 W/m 1,3 km/h (1 Bft) 95,73 %
22.07.2017 00:00 20,0 C 19,0 C 17,5 C 76 % 0 lf 1008,9 hPa 0,0 l/m 0,00 h 0,00 h 0 W/m 0,0 km/h (0 Bft) 98,10 %
22.07.2017 01:00 19,7 C 18,8 C 17,2 C 78 % 0 lf 1009,0 hPa 0,0 l/m 0,00 h 0,00 h 0 W/m 0,0 km/h (0 Bft) 96,58 %
22.07.2017 02:00 19,4 C 18,7 C 17,2 C 82 % 0 lf 1008,8 hPa 0,0 l/m 0,00 h 0,00 h 0 W/m 0,6 km/h (0 Bft) 94,17 %
22.07.2017 03:00 19,1 C 18,7 C 17,4 C 83 % 0 lf 1008,9 hPa 0,0 l/m 0,00 h 0,00 h 0 W/m 4,7 km/h (1 Bft) 98,36 %
22.07.2017 04:00 19,2 C 18,9 C 17,2 C 83 % 0 lf 1009,3 hPa 0,0 l/m 0,00 h 0,00 h 0 W/m 9,6 km/h (2 Bft) 96,47 %
22.07.2017 05:00 19,0 C 18,7 C 16,9 C 83 % 0 lf 1009,4 hPa 0,0 l/m 0,00 h 0,00 h 4 W/m 9,0 km/h (2 Bft) 95,23 %
22.07.2017 06:00 18,8 C 18,9 C 17,3 C 83 % 0 lf 1009,7 hPa 0,0 l/m 0,45 h 0,00 h 57 W/m 7,5 km/h (2 Bft) 96,75 %
22.07.2017 07:00 19,7 C 20,7 C 19,2 C 79 % 0 lf 1009,9 hPa 0,0 l/m 0,43 h 0,00 h 99 W/m 5,7 km/h (1 Bft) 98,56 %
22.07.2017 08:00 20,5 C 23,3 C 19,6 C 79 % 0 lf 1010,4 hPa 0,0 l/m 0,83 h 0,00 h 332 W/m 10,4 km/h (2 Bft) 95,73 %
22.07.2017 09:00 23,5 C 31,1 C 24,5 C 65 % 0 lf 1010,5 hPa 0,0 l/m 1,00 h 0,00 h 520 W/m 13,1 km/h (3 Bft) 95,76 %
22.07.2017 10:00 25,8 C 31,1 C 29,0 C 56 % 0 lf 1010,6 hPa 0,0 l/m 0,80 h 0,00 h 513 W/m 16,3 km/h (3 Bft) 97,61 %
22.07.2017 11:00 25,0 C 27,3 C 26,0 C 61 % 0 lf 1010,8 hPa 0,0 l/m 0,17 h 0,00 h 325 W/m 13,4 km/h (3 Bft) 97,80 %
22.07.2017 12:00 26,1 C 31,9 C 29,5 C 58 % 0 lf 1010,8 hPa 0,0 l/m 0,50 h 0,00 h 482 W/m 12,2 km/h (2 Bft) 94,36 %
22.07.2017 13:00 27,6 C 35,2 C 28,9 C 54 % 0 lf 1010,5 hPa 0,0 l/m 0,90 h 0,00 h 874 W/m 13,7 km/h (3 Bft) 99,08 %
22.07.2017 14:00 28,2 C 31,7 C 31,4 C 52 % 0 lf 1010,2 hPa 0,0 l/m 0,67 h 0,00 h 641 W/m 15,0 km/h (3 Bft) 96,44 %
22.07.2017 15:00 28,5 C 31,6 C 33,9 C 51 % 0 lf 1009,8 hPa 0,0 l/m 0,90 h 0,00 h 603 W/m 13,7 km/h (3 Bft) 96,09 %
22.07.2017 16:00 28,8 C 30,7 C 34,3 C 50 % 0 lf 1009,5 hPa 0,0 l/m 0,93 h 0,00 h 711 W/m 19,6 km/h (3 Bft) 97,14 %
22.07.2017 17:00 28,6 C 29,0 C 28,5 C 47 % 0 lf 1009,6 hPa 0,0 l/m 0,57 h 0,00 h 412 W/m 20,1 km/h (4 Bft) 97,30 %
22.07.2017 18:00 27,1 C 27,2 C 26,4 C 52 % 0 lf 1009,9 hPa 0,0 l/m 0,17 h 0,00 h 194 W/m 16,1 km/h (3 Bft) 95,88 %
22.07.2017 19:00 25,7 C 25,7 C 24,3 C 56 % 0 lf 1009,7 hPa 0,0 l/m 0,30 h 0,00 h 132 W/m 12,8 km/h (3 Bft) 97,51 %
22.07.2017 20:00 24,8 C 24,2 C 22,8 C 59 % 0 lf 1009,7 hPa 0,0 l/m 0,00 h 0,00 h 33 W/m 9,4 km/h (2 Bft) 95,51 %
22.07.2017 21:00 23,1 C 21,7 C 20,6 C 65 % 0 lf 1009,8 hPa 0,0 l/m 0,00 h 0,03 h 6 W/m 14,8 km/h (3 Bft) 96,87 %
22.07.2017 22:00 21,1 C 19,7 C 18,4 C 75 % 4 lf 1010,8 hPa 0,0 l/m 0,00 h 0,30 h 0 W/m 16,8 km/h (3 Bft) 95,28 %
22.07.2017 23:00 18,8 C 17,1 C 16,1 C 88 % 15 lf 1011,2 hPa 1,0 l/m 0,00 h 0,87 h 0 W/m 14,2 km/h (3 Bft) 97,08 %
23.07.2017 00:00 17,8 C 16,7 C 16,1 C 92 % 15 lf 1010,6 hPa 0,6 l/m 0,00 h 0,97 h 0 W/m 4,9 km/h (1 Bft) 96,54 %
23.07.2017 01:00 17,4 C 16,7 C 16,1 C 95 % 15 lf 1010,7 hPa 0,4 l/m 0,00 h 0,53 h 0 W/m 5,2 km/h (1 Bft) 97,51 %
23.07.2017 02:00 17,3 C 16,5 C 16,0 C 95 % 15 lf 1010,3 hPa 0,2 l/m 0,00 h 0,00 h 0 W/m 2,4 km/h (1 Bft) 95,45 %
23.07.2017 03:00 17,3 C 16,7 C 16,1 C 96 % 15 lf 1010,4 hPa 0,0 l/m 0,00 h 0,23 h 0 W/m 5,9 km/h (2 Bft) 96,93 %
23.07.2017 04:00 16,5 C 15,6 C 15,0 C 96 % 15 lf 1010,4 hPa 0,6 l/m 0,00 h 0,43 h 0 W/m 12,3 km/h (3 Bft) 96,51 %
23.07.2017 05:00 15,4 C 14,3 C 13,7 C 95 % 15 lf 1010,8 hPa 0,8 l/m 0,00 h 0,23 h 3 W/m 12,5 km/h (3 Bft) 97,22 %
23.07.2017 06:00 14,7 C 13,9 C 13,1 C 95 % 15 lf 1011,8 hPa 0,6 l/m 0,23 h 0,00 h 41 W/m 9,5 km/h (2 Bft) 95,34 %
23.07.2017 07:00 14,7 C 14,7 C 14,0 C 95 % 7 lf 1012,1 hPa 0,0 l/m 0,97 h 0,00 h 211 W/m 17,0 km/h (3 Bft) 96,65 %
23.07.2017 08:00 15,2 C 14,8 C 13,8 C 91 % 0 lf 1012,4 hPa 0,0 l/m 0,13 h 0,00 h 113 W/m 18,3 km/h (3 Bft) 97,30 %
23.07.2017 09:00 16,4 C 22,4 C 16,9 C 86 % 0 lf 1012,3 hPa 0,4 l/m 0,93 h 0,00 h 478 W/m 24,5 km/h (4 Bft) 95,81 %
23.07.2017 10:00 18,8 C 25,5 C 23,5 C 77 % 0 lf 1012,2 hPa 0,0 l/m 0,87 h 0,00 h 644 W/m 25,8 km/h (4 Bft) 95,76 %
23.07.2017 11:00 19,4 C 21,9 C 21,1 C 71 % 0 lf 1012,5 hPa 0,0 l/m 0,33 h 0,00 h 369 W/m 30,9 km/h (5 Bft) 98,57 %
23.07.2017 12:00 19,9 C 22,6 C 22,3 C 69 % 3 lf 1012,5 hPa 0,6 l/m 0,67 h 0,20 h 425 W/m 31,8 km/h (5 Bft) 94,58 %
23.07.2017 13:00 17,7 C 18,1 C 16,0 C 80 % 8 lf 1012,8 hPa 0,0 l/m 0,17 h 0,03 h 284 W/m 21,7 km/h (4 Bft) 96,51 %
23.07.2017 14:00 19,0 C 21,6 C 20,6 C 73 % 0 lf 1012,8 hPa 0,0 l/m 0,20 h 0,00 h 389 W/m 25,2 km/h (4 Bft) 97,49 %
23.07.2017 15:00 18,6 C 18,1 C 17,4 C 77 % 10 lf 1013,2 hPa 0,2 l/m 0,07 h 0,60 h 229 W/m 24,2 km/h (4 Bft) 95,94 %
23.07.2017 16:00 18,7 C 21,0 C 23,4 C 81 % 0 lf 1012,7 hPa 0,0 l/m 0,90 h 0,00 h 647 W/m 26,8 km/h (4 Bft) 95,09 %
23.07.2017 17:00 20,6 C 21,7 C 21,1 C 71 % 0 lf 1012,2 hPa 0,2 l/m 0,60 h 0,00 h 403 W/m 26,6 km/h (4 Bft) 98,43 %
23.07.2017 18:00 20,1 C 20,7 C 20,3 C 69 % 0 lf 1012,1 hPa 0,0 l/m 0,47 h 0,00 h 265 W/m 27,4 km/h (4 Bft) 94,29 %
23.07.2017 19:00 19,5 C 19,7 C 18,5 C 68 % 0 lf 1012,1 hPa 0,0 l/m 1,00 h 0,00 h 288 W/m 27,8 km/h (4 Bft) 97,29 %
23.07.2017 20:00 18,8 C 18,7 C 17,7 C 72 % 0 lf 1012,0 hPa 0,0 l/m 0,83 h 0,00 h 88 W/m 22,3 km/h (4 Bft) 96,15 %
23.07.2017 21:00 18,0 C 17,2 C 16,0 C 75 % 0 lf 1011,9 hPa 0,0 l/m 0,23 h 0,00 h 16 W/m 15,3 km/h (3 Bft) 96,65 %
23.07.2017 22:00 17,0 C 16,5 C 15,3 C 79 % 0 lf 1011,8 hPa 0,0 l/m 0,00 h 0,00 h 3 W/m 16,0 km/h (3 Bft) 97,43 %
23.07.2017 23:00 16,6 C 16,2 C 15,0 C 82 % 0 lf 1011,6 hPa 0,0 l/m 0,00 h 0,00 h 3 W/m 11,2 km/h (2 Bft) 95,65 %
Min-Datum _ 18.07.17 18.07.17 21.07.17 22.07.17 17.07.17 20.07.17 - - - - 17.07.17 19.07.17
_ Min-Zeit 05:58 05:42 05:08 17:02 00:00 05:44 - - - - 00:00 00:02
Minimum _ 12,2 C 10,6 C 10,0 C 45 % 0 lf 1006,1 hPa - - - - 0,0 km/h (0 Bft) 9,09 %
Max-Datum _ 19.07.17 19.07.17 19.07.17 20.07.17 17.07.17 17.07.17 20.07.17 22.07.17 23.07.17 21.07.17 19.07.17 17.07.17
_ Max-Zeit 14:16 14:10 14:16 08:44 05:38 10:26 05:28 07:05 04:05 14:08 15:16 00:48
Maximum _ 34,3 C 41,7 C 39,4 C 99 % 15 lf 1022,1 hPa 13,4 l/m 0,08 h 0,08 h 1174 W/m 48,1 km/h
W-SW (6 Bft)
100,00 %
Durchschnitt _ 21,2 C 22,5 C 21,0 C 74 % 2 lf 1012,8 hPa #35,4 l/m #70:55 h #13:28 h 302 W/m 12,9 km/h (3 Bft) 96,43 %
© 2017 W. Hausmann